Time;durP1;ratioP1;P1;durP2;ratioP2;P2;SDS_P1;SDS_P2;PMS_P1;PMS_P2;Temp;Humidity;BMP_temperature;BMP_pressure;BME280_temperature;BME280_humidity;BME280_pressure;Samples;Min_cycle;Max_cycle;Signal;HPM_P1;HPM_P2
2020/12/19 00:00:06;;;;;;;;;;;19.80;38.40;;;;;;491749;240;1073;-53
2020/12/19 00:02:07;;;;;;;;;;;19.80;39.80;;;;;;491618;240;1078;-53
2020/12/19 00:04:08;;;;;;;;;;;19.70;39.90;;;;;;491699;240;1066;-53
2020/12/19 00:06:09;;;;;;;;;;;19.70;40.00;;;;;;491804;240;975;-53
2020/12/19 00:08:11;;;;;;;;;;;19.60;40.10;;;;;;491776;240;2173;-53
2020/12/19 00:10:12;;;;;;;;;;;19.60;40.20;;;;;;491643;240;1049;-53
2020/12/19 00:12:13;;;;;;;;;;;19.50;40.20;;;;;;491687;240;1416;-53
2020/12/19 00:14:16;;;;;;;;;;;19.50;40.30;;;;;;491778;240;1186;-53
2020/12/19 00:16:16;;;;;;;;;;;19.50;40.40;;;;;;491593;241;2433;-53
2020/12/19 00:18:17;;;;;;;;;;;19.40;40.40;;;;;;491790;238;1319;-53
2020/12/19 00:20:19;;;;;;;;;;;19.40;40.50;;;;;;491835;240;1204;-53
2020/12/19 00:22:21;;;;;;;;;;;19.40;40.60;;;;;;491646;240;1170;-53
2020/12/19 00:24:22;;;;;;;;;;;19.30;40.60;;;;;;491724;240;1092;-53
2020/12/19 00:26:23;;;;;;;;;;;19.30;40.60;;;;;;491518;240;1193;-53
2020/12/19 00:28:24;;;;;;;;;;;19.20;40.70;;;;;;491630;240;2137;-53
2020/12/19 00:30:26;;;;;;;;;;;19.20;40.70;;;;;;491581;240;1188;-53
2020/12/19 00:32:27;;;;;;;;;;;19.20;40.80;;;;;;491610;240;1203;-54
2020/12/19 00:34:29;;;;;;;;;;;19.20;39.60;;;;;;491709;240;963;-53
2020/12/19 00:36:30;;;;;;;;;;;19.10;40.90;;;;;;491466;240;1152;-53
2020/12/19 00:38:31;;;;;;;;;;;19.10;41.00;;;;;;491652;240;1197;-52
2020/12/19 00:40:32;;;;;;;;;;;19.10;41.00;;;;;;491835;240;1172;-53
2020/12/19 00:42:34;;;;;;;;;;;19.00;41.00;;;;;;491667;240;2921;-53
2020/12/19 00:44:35;;;;;;;;;;;19.00;41.00;;;;;;491794;240;1069;-54
2020/12/19 00:46:37;;;;;;;;;;;19.00;41.10;;;;;;491485;240;1140;-53
2020/12/19 00:48:38;;;;;;;;;;;19.00;41.10;;;;;;491612;240;2148;-53
2020/12/19 00:50:39;;;;;;;;;;;19.00;41.20;;;;;;491628;240;991;-53
2020/12/19 00:52:41;;;;;;;;;;;19.00;41.20;;;;;;491683;240;1025;-53
2020/12/19 00:54:42;;;;;;;;;;;18.90;41.20;;;;;;492039;240;990;-53
2020/12/19 00:56:43;;;;;;;;;;;18.90;40.00;;;;;;491656;240;1063;-53
2020/12/19 00:58:44;;;;;;;;;;;18.90;41.30;;;;;;491644;240;961;-53
2020/12/19 01:00:46;;;;;;;;;;;18.80;41.20;;;;;;491989;240;1057;-53
2020/12/19 01:02:47;;;;;;;;;;;18.80;41.30;;;;;;492024;239;1292;-53
2020/12/19 01:04:48;;;;;;;;;;;18.80;41.30;;;;;;491657;240;1070;-53
2020/12/19 01:06:49;;;;;;;;;;;18.80;41.30;;;;;;491618;240;1043;-53
2020/12/19 01:08:51;;;;;;;;;;;18.80;41.40;;;;;;491629;240;2133;-53
2020/12/19 01:10:52;;;;;;;;;;;18.80;41.40;;;;;;491729;240;959;-53
2020/12/19 01:12:53;;;;;;;;;;;18.80;41.40;;;;;;491606;240;970;-53
2020/12/19 01:14:55;;;;;;;;;;;18.80;40.20;;;;;;491619;240;1071;-53
2020/12/19 01:16:56;;;;;;;;;;;18.70;41.40;;;;;;491606;240;1019;-53
2020/12/19 01:18:57;;;;;;;;;;;18.70;41.40;;;;;;491634;240;1156;-53
2020/12/19 01:20:58;;;;;;;;;;;18.70;41.50;;;;;;491803;240;1041;-53
2020/12/19 01:23:00;;;;;;;;;;;18.70;41.50;;;;;;491567;240;1033;-53
2020/12/19 01:25:01;;;;;;;;;;;18.70;41.50;;;;;;491662;240;1040;-53
2020/12/19 01:27:02;;;;;;;;;;;18.70;40.30;;;;;;491710;240;984;-53
2020/12/19 01:29:03;;;;;;;;;;;18.70;41.60;;;;;;491613;240;2188;-53
2020/12/19 01:31:05;;;;;;;;;;;18.60;40.20;;;;;;491651;240;983;-53
2020/12/19 01:33:06;;;;;;;;;;;18.60;41.60;;;;;;491599;239;1299;-54
2020/12/19 01:35:07;;;;;;;;;;;18.60;41.60;;;;;;491643;240;1061;-53
2020/12/19 01:37:09;;;;;;;;;;;18.60;41.60;;;;;;491628;240;1032;-53
2020/12/19 01:39:10;;;;;;;;;;;18.60;41.60;;;;;;491766;240;1103;-53
2020/12/19 01:41:11;;;;;;;;;;;18.60;41.70;;;;;;491786;240;1023;-53
2020/12/19 01:43:12;;;;;;;;;;;18.50;41.60;;;;;;491879;240;1028;-53
2020/12/19 01:45:14;;;;;;;;;;;18.60;41.70;;;;;;491820;240;1055;-53
2020/12/19 01:47:15;;;;;;;;;;;18.50;41.70;;;;;;491624;240;1071;-53
2020/12/19 01:49:16;;;;;;;;;;;18.50;41.70;;;;;;491613;240;2171;-53
2020/12/19 01:51:17;;;;;;;;;;;18.50;41.70;;;;;;491647;240;1094;-53
2020/12/19 01:53:19;;;;;;;;;;;18.50;41.70;;;;;;491566;240;1044;-53
2020/12/19 01:55:20;;;;;;;;;;;18.50;41.70;;;;;;491572;240;2468;-53
2020/12/19 01:57:21;;;;;;;;;;;18.50;41.70;;;;;;491673;240;1046;-53
2020/12/19 01:59:23;;;;;;;;;;;18.40;41.70;;;;;;491614;240;1179;-53
2020/12/19 02:01:24;;;;;;;;;;;18.40;41.70;;;;;;491726;240;1093;-53
2020/12/19 02:03:25;;;;;;;;;;;18.40;41.70;;;;;;491621;239;1247;-53
2020/12/19 02:05:26;;;;;;;;;;;18.40;41.80;;;;;;491662;240;1220;-53
2020/12/19 02:07:28;;;;;;;;;;;18.40;41.80;;;;;;492002;240;1026;-53
2020/12/19 02:09:29;;;;;;;;;;;18.40;41.80;;;;;;491769;240;2133;-53
2020/12/19 02:11:30;;;;;;;;;;;18.40;41.80;;;;;;491610;240;1211;-53
2020/12/19 02:13:31;;;;;;;;;;;18.40;41.80;;;;;;491637;240;967;-53
2020/12/19 02:15:33;;;;;;;;;;;18.40;41.80;;;;;;491635;240;995;-53
2020/12/19 02:17:34;;;;;;;;;;;18.40;41.90;;;;;;491593;240;1049;-53
2020/12/19 02:19:35;;;;;;;;;;;18.30;41.80;;;;;;491772;240;1130;-53
2020/12/19 02:21:37;;;;;;;;;;;18.30;41.80;;;;;;491675;240;1019;-53
2020/12/19 02:23:38;;;;;;;;;;;18.30;41.80;;;;;;491604;240;1096;-53
2020/12/19 02:25:39;;;;;;;;;;;18.30;41.80;;;;;;491632;240;955;-53
2020/12/19 02:27:40;;;;;;;;;;;18.30;41.80;;;;;;491595;240;1029;-53
2020/12/19 02:29:42;;;;;;;;;;;18.30;41.80;;;;;;491608;240;2192;-53
2020/12/19 02:31:43;;;;;;;;;;;18.30;41.80;;;;;;491725;240;1039;-52
2020/12/19 02:33:44;;;;;;;;;;;18.30;41.90;;;;;;491615;240;938;-53
2020/12/19 02:35:46;;;;;;;;;;;18.30;41.90;;;;;;491518;240;1355;-53
2020/12/19 02:37:47;;;;;;;;;;;18.30;41.90;;;;;;491588;240;1218;-53
2020/12/19 02:39:48;;;;;;;;;;;18.30;41.90;;;;;;491702;240;1047;-53
2020/12/19 02:41:49;;;;;;;;;;;18.30;41.90;;;;;;491726;240;1057;-53
2020/12/19 02:43:51;;;;;;;;;;;18.30;41.90;;;;;;491685;240;1108;-53
2020/12/19 02:45:52;;;;;;;;;;;18.20;41.80;;;;;;491643;240;1076;-53
2020/12/19 02:47:53;;;;;;;;;;;18.20;41.90;;;;;;491745;240;1146;-53
2020/12/19 02:49:54;;;;;;;;;;;18.20;41.90;;;;;;491585;240;2130;-53
2020/12/19 02:51:56;;;;;;;;;;;18.20;41.90;;;;;;491604;240;1062;-53
2020/12/19 02:53:57;;;;;;;;;;;18.30;41.90;;;;;;491639;240;1185;-53
2020/12/19 02:55:58;;;;;;;;;;;18.20;41.90;;;;;;491639;240;1265;-53
2020/12/19 02:58:00;;;;;;;;;;;18.20;41.90;;;;;;491597;240;1074;-53
2020/12/19 03:00:01;;;;;;;;;;;18.20;41.90;;;;;;491596;240;1058;-53
2020/12/19 03:02:02;;;;;;;;;;;18.20;41.90;;;;;;491584;240;1245;-53
2020/12/19 03:04:03;;;;;;;;;;;18.20;42.00;;;;;;491646;240;1041;-53
2020/12/19 03:06:05;;;;;;;;;;;18.20;41.90;;;;;;491638;240;1170;-53
2020/12/19 03:08:06;;;;;;;;;;;18.20;41.90;;;;;;491738;240;2121;-52
2020/12/19 03:10:07;;;;;;;;;;;18.20;41.90;;;;;;491628;240;1046;-53
2020/12/19 03:12:09;;;;;;;;;;;18.20;42.00;;;;;;491734;240;1000;-53
2020/12/19 03:14:10;;;;;;;;;;;18.10;41.90;;;;;;491613;240;1026;-53
2020/12/19 03:16:11;;;;;;;;;;;18.20;41.90;;;;;;491671;240;1047;-53
2020/12/19 03:18:13;;;;;;;;;;;18.20;41.90;;;;;;491636;240;1011;-53
2020/12/19 03:20:14;;;;;;;;;;;18.20;41.80;;;;;;491894;240;1152;-53
2020/12/19 03:22:15;;;;;;;;;;;18.20;41.70;;;;;;491637;240;1019;-53
2020/12/19 03:24:16;;;;;;;;;;;18.30;41.70;;;;;;491629;240;1001;-53
2020/12/19 03:26:18;;;;;;;;;;;18.30;41.60;;;;;;491735;240;1030;-53
2020/12/19 03:28:19;;;;;;;;;;;18.30;41.50;;;;;;491617;240;2148;-53
2020/12/19 03:30:23;;;;;;;;;;;18.30;41.50;;;;;;491767;240;1067;-53
2020/12/19 03:32:22;;;;;;;;;;;18.30;41.40;;;;;;491624;241;2250;-53
2020/12/19 03:34:23;;;;;;;;;;;18.40;41.50;;;;;;491672;240;1034;-53
2020/12/19 03:36:24;;;;;;;;;;;18.40;41.40;;;;;;491670;240;1245;-53
2020/12/19 03:38:26;;;;;;;;;;;18.40;41.30;;;;;;491629;240;1024;-53
2020/12/19 03:40:27;;;;;;;;;;;18.40;41.30;;;;;;491839;240;945;-53
2020/12/19 03:42:28;;;;;;;;;;;18.50;41.30;;;;;;491620;240;1065;-53
2020/12/19 03:44:30;;;;;;;;;;;18.50;41.30;;;;;;491729;240;1067;-53
2020/12/19 03:46:31;;;;;;;;;;;18.50;41.20;;;;;;491632;240;1028;-53
2020/12/19 03:48:32;;;;;;;;;;;18.50;41.20;;;;;;491812;240;2192;-53
2020/12/19 03:50:34;;;;;;;;;;;18.50;41.10;;;;;;491681;240;1173;-52
2020/12/19 03:52:35;;;;;;;;;;;18.60;41.10;;;;;;491609;240;1054;-53
2020/12/19 03:54:36;;;;;;;;;;;18.60;41.10;;;;;;491816;240;1097;-53
2020/12/19 03:56:38;;;;;;;;;;;18.60;41.00;;;;;;491612;240;947;-53
2020/12/19 03:58:39;;;;;;;;;;;18.60;41.00;;;;;;491663;240;1058;-53
2020/12/19 04:00:40;;;;;;;;;;;18.60;41.00;;;;;;491679;240;1060;-53
2020/12/19 04:02:42;;;;;;;;;;;18.70;41.00;;;;;;491641;240;1106;-53
2020/12/19 04:04:43;;;;;;;;;;;18.70;40.90;;;;;;491848;240;1011;-53
2020/12/19 04:06:44;;;;;;;;;;;18.70;40.90;;;;;;491644;240;1214;-53
2020/12/19 04:08:45;;;;;;;;;;;18.70;40.90;;;;;;491610;240;2187;-53
2020/12/19 04:10:47;;;;;;;;;;;18.70;40.80;;;;;;491666;240;1059;-53
2020/12/19 04:12:48;;;;;;;;;;;18.80;40.80;;;;;;491682;240;963;-53
2020/12/19 04:14:49;;;;;;;;;;;18.80;40.80;;;;;;491702;240;1323;-53
2020/12/19 04:16:50;;;;;;;;;;;18.80;40.80;;;;;;491828;240;1051;-53
2020/12/19 04:18:52;;;;;;;;;;;18.80;40.70;;;;;;491765;240;1103;-53
2020/12/19 04:20:53;;;;;;;;;;;18.80;40.70;;;;;;491611;240;1181;-53
2020/12/19 04:22:54;;;;;;;;;;;18.80;40.70;;;;;;491727;240;1043;-54
2020/12/19 04:24:56;;;;;;;;;;;18.90;40.70;;;;;;491846;240;1032;-53
2020/12/19 04:26:57;;;;;;;;;;;18.90;40.70;;;;;;491809;240;1037;-53
2020/12/19 04:28:58;;;;;;;;;;;18.90;40.60;;;;;;491913;240;2180;-53
2020/12/19 04:31:00;;;;;;;;;;;18.90;40.60;;;;;;491563;240;1010;-53
2020/12/19 04:33:01;;;;;;;;;;;18.90;40.60;;;;;;491680;240;1016;-53
2020/12/19 04:35:02;;;;;;;;;;;18.90;40.50;;;;;;491702;240;940;-53
2020/12/19 04:37:04;;;;;;;;;;;19.00;40.60;;;;;;491670;240;1159;-54
2020/12/19 04:39:05;;;;;;;;;;;19.00;40.50;;;;;;491691;240;1071;-53
2020/12/19 04:41:06;;;;;;;;;;;19.00;40.50;;;;;;491540;240;984;-53
2020/12/19 04:43:07;;;;;;;;;;;19.00;40.40;;;;;;491702;240;1098;-53
2020/12/19 04:45:09;;;;;;;;;;;19.00;40.40;;;;;;491626;240;1047;-53
2020/12/19 04:47:10;;;;;;;;;;;19.00;40.40;;;;;;491616;240;1011;-53
2020/12/19 04:49:11;;;;;;;;;;;19.10;40.40;;;;;;491654;240;2124;-53
2020/12/19 04:51:13;;;;;;;;;;;19.10;40.40;;;;;;491628;240;1165;-54
2020/12/19 04:53:14;;;;;;;;;;;19.00;40.30;;;;;;491656;240;1045;-53
2020/12/19 04:55:15;;;;;;;;;;;19.10;40.40;;;;;;491705;240;1074;-53
2020/12/19 04:57:17;;;;;;;;;;;19.10;40.30;;;;;;491773;240;1074;-54
2020/12/19 04:59:18;;;;;;;;;;;19.10;40.30;;;;;;491762;240;1024;-53
2020/12/19 05:01:19;;;;;;;;;;;19.10;40.30;;;;;;491625;240;964;-53
2020/12/19 05:03:20;;;;;;;;;;;19.10;40.30;;;;;;491754;240;977;-53
2020/12/19 05:05:22;;;;;;;;;;;19.10;40.20;;;;;;491640;240;1064;-53
2020/12/19 05:07:23;;;;;;;;;;;19.10;40.20;;;;;;491617;240;1149;-53
2020/12/19 05:09:24;;;;;;;;;;;19.10;40.20;;;;;;491635;240;2183;-53
2020/12/19 05:11:26;;;;;;;;;;;19.20;40.20;;;;;;491738;240;944;-53
2020/12/19 05:13:27;;;;;;;;;;;19.20;40.20;;;;;;491817;240;1030;-53
2020/12/19 05:15:28;;;;;;;;;;;19.20;40.20;;;;;;491638;240;965;-53
2020/12/19 05:17:29;;;;;;;;;;;19.20;40.20;;;;;;491583;238;1164;-53
2020/12/19 05:19:31;;;;;;;;;;;19.20;40.10;;;;;;491810;240;1025;-53
2020/12/19 05:21:32;;;;;;;;;;;19.20;40.10;;;;;;491819;240;1198;-53
2020/12/19 05:23:34;;;;;;;;;;;19.30;40.10;;;;;;491633;240;1085;-53
2020/12/19 05:25:35;;;;;;;;;;;19.30;40.10;;;;;;491871;240;1034;-53
2020/12/19 05:27:36;;;;;;;;;;;19.30;40.10;;;;;;491677;240;974;-53
2020/12/19 05:29:37;;;;;;;;;;;19.30;40.10;;;;;;491596;240;2144;-53
2020/12/19 05:31:39;;;;;;;;;;;19.30;40.10;;;;;;491626;240;1037;-53
2020/12/19 05:33:40;;;;;;;;;;;19.30;40.10;;;;;;491745;240;1069;-53
2020/12/19 05:35:41;;;;;;;;;;;19.30;40.00;;;;;;491682;240;1066;-52
2020/12/19 05:37:43;;;;;;;;;;;19.30;40.00;;;;;;491561;240;1177;-53
2020/12/19 05:39:44;;;;;;;;;;;19.30;40.00;;;;;;491626;240;1206;-54
2020/12/19 05:41:45;;;;;;;;;;;19.30;40.00;;;;;;491755;238;1164;-53
2020/12/19 05:43:46;;;;;;;;;;;19.30;39.90;;;;;;491686;240;1246;-53
2020/12/19 05:45:48;;;;;;;;;;;19.30;38.60;;;;;;491661;240;1010;-53
2020/12/19 05:47:49;;;;;;;;;;;19.40;40.00;;;;;;491501;240;1420;-53
2020/12/19 05:49:50;;;;;;;;;;;19.40;40.00;;;;;;491660;240;2415;-53
2020/12/19 05:51:51;;;;;;;;;;;19.40;39.90;;;;;;491599;240;1160;-53
2020/12/19 05:53:53;;;;;;;;;;;19.40;39.90;;;;;;491617;240;1489;-53
2020/12/19 05:55:54;;;;;;;;;;;19.40;39.90;;;;;;491687;240;1222;-53
2020/12/19 05:57:57;;;;;;;;;;;19.40;39.90;;;;;;491592;240;1126;-53
2020/12/19 05:59:57;;;;;;;;;;;19.40;39.90;;;;;;491620;242;1514;-52
2020/12/19 06:01:59;;;;;;;;;;;19.40;39.80;;;;;;491594;240;1332;-53
2020/12/19 06:04:00;;;;;;;;;;;19.40;39.80;;;;;;491672;240;1179;-53
2020/12/19 06:06:01;;;;;;;;;;;19.40;39.80;;;;;;491667;240;1129;-53
2020/12/19 06:08:03;;;;;;;;;;;19.50;39.80;;;;;;491707;240;1144;-53
2020/12/19 06:10:04;;;;;;;;;;;19.50;39.80;;;;;;491770;240;2145;-53
2020/12/19 06:12:06;;;;;;;;;;;19.50;39.80;;;;;;491723;240;1211;-53
2020/12/19 06:14:07;;;;;;;;;;;19.50;39.80;;;;;;491684;240;1035;-53
2020/12/19 06:16:08;;;;;;;;;;;19.50;39.80;;;;;;491602;240;1144;-53
2020/12/19 06:18:09;;;;;;;;;;;19.50;39.80;;;;;;491771;240;1020;-53
2020/12/19 06:20:11;;;;;;;;;;;19.50;39.80;;;;;;491645;240;1041;-53
2020/12/19 06:22:12;;;;;;;;;;;19.50;39.70;;;;;;491572;240;1166;-53
2020/12/19 06:24:13;;;;;;;;;;;19.50;39.70;;;;;;491704;240;1020;-53
2020/12/19 06:26:15;;;;;;;;;;;19.50;39.70;;;;;;491611;240;1328;-53
2020/12/19 06:28:16;;;;;;;;;;;19.60;39.70;;;;;;491637;240;1273;-53
2020/12/19 06:30:17;;;;;;;;;;;19.50;39.70;;;;;;491551;240;2201;-53
2020/12/19 06:32:18;;;;;;;;;;;19.60;39.70;;;;;;491610;240;1205;-53
2020/12/19 06:34:20;;;;;;;;;;;19.60;39.70;;;;;;491735;240;1037;-53
2020/12/19 06:36:21;;;;;;;;;;;19.60;39.70;;;;;;491617;240;1421;-53
2020/12/19 06:38:22;;;;;;;;;;;19.60;39.70;;;;;;491582;240;1171;-53
2020/12/19 06:40:23;;;;;;;;;;;19.60;39.70;;;;;;491693;240;1185;-53
2020/12/19 06:42:25;;;;;;;;;;;19.60;39.60;;;;;;491575;240;1131;-53
2020/12/19 06:44:26;;;;;;;;;;;19.60;39.60;;;;;;491633;240;1075;-53
2020/12/19 06:46:27;;;;;;;;;;;19.60;39.60;;;;;;491652;240;1226;-53
2020/12/19 06:48:29;;;;;;;;;;;19.60;39.60;;;;;;491592;240;972;-53
2020/12/19 06:50:30;;;;;;;;;;;19.60;39.60;;;;;;491535;240;2179;-53
2020/12/19 06:52:31;;;;;;;;;;;19.60;39.60;;;;;;491673;240;1193;-53
2020/12/19 06:54:32;;;;;;;;;;;19.60;38.30;;;;;;491800;240;991;-53
2020/12/19 06:56:34;;;;;;;;;;;19.60;39.60;;;;;;491511;240;1136;-53
2020/12/19 06:58:35;;;;;;;;;;;19.60;38.30;;;;;;491653;240;1160;-53
2020/12/19 07:00:37;;;;;;;;;;;19.70;39.60;;;;;;491549;240;1653;-53
2020/12/19 07:02:38;;;;;;;;;;;19.70;39.60;;;;;;491674;240;2312;-53
2020/12/19 07:04:39;;;;;;;;;;;19.70;39.60;;;;;;491667;240;1134;-53
2020/12/19 07:06:40;;;;;;;;;;;19.70;39.60;;;;;;491643;240;1552;-52
2020/12/19 07:08:41;;;;;;;;;;;19.70;39.50;;;;;;491737;240;1158;-52
2020/12/19 07:10:43;;;;;;;;;;;19.70;39.60;;;;;;491542;240;2192;-53
2020/12/19 07:12:44;;;;;;;;;;;19.70;39.60;;;;;;491654;240;1091;-53
2020/12/19 07:14:45;;;;;;;;;;;19.70;39.50;;;;;;491667;240;1065;-53
2020/12/19 07:16:47;;;;;;;;;;;19.70;39.50;;;;;;491527;240;1223;-53
2020/12/19 07:18:48;;;;;;;;;;;19.70;39.50;;;;;;491678;240;989;-53
2020/12/19 07:20:49;;;;;;;;;;;19.70;39.50;;;;;;491577;240;1613;-53
2020/12/19 07:22:50;;;;;;;;;;;19.70;39.50;;;;;;491622;240;1124;-53
2020/12/19 07:24:52;;;;;;;;;;;19.70;39.40;;;;;;491746;240;1061;-53
2020/12/19 07:26:53;;;;;;;;;;;19.70;39.40;;;;;;491511;240;1180;-53
2020/12/19 07:28:54;;;;;;;;;;;19.70;39.40;;;;;;491673;240;1042;-53
2020/12/19 07:30:56;;;;;;;;;;;19.80;39.50;;;;;;491687;240;2137;-53
2020/12/19 07:32:57;;;;;;;;;;;19.80;39.50;;;;;;491740;240;1044;-53
2020/12/19 07:34:58;;;;;;;;;;;19.80;39.40;;;;;;491573;240;1024;-53
2020/12/19 07:36:59;;;;;;;;;;;19.80;39.40;;;;;;491559;240;1007;-53
2020/12/19 07:39:01;;;;;;;;;;;19.70;38.10;;;;;;491772;240;1163;-54
2020/12/19 07:41:03;;;;;;;;;;;19.80;39.40;;;;;;491635;240;1087;-53
2020/12/19 07:43:04;;;;;;;;;;;19.80;39.40;;;;;;491636;242;2219;-53
2020/12/19 07:45:05;;;;;;;;;;;19.80;39.40;;;;;;491613;240;1051;-53
2020/12/19 07:47:06;;;;;;;;;;;19.80;39.40;;;;;;491672;240;1060;-53
2020/12/19 07:49:08;;;;;;;;;;;19.80;39.40;;;;;;491736;240;1003;-53
2020/12/19 07:51:09;;;;;;;;;;;19.80;39.50;;;;;;491565;240;2144;-53
2020/12/19 07:53:10;;;;;;;;;;;19.90;38.20;;;;;;491709;240;1126;-53
2020/12/19 07:55:11;;;;;;;;;;;19.90;39.40;;;;;;491722;240;1069;-53
2020/12/19 07:57:13;;;;;;;;;;;19.90;39.20;;;;;;491608;240;1421;-53
2020/12/19 07:59:14;;;;;;;;;;;19.90;39.30;;;;;;491649;240;1043;-53
2020/12/19 08:01:15;;;;;;;;;;;19.80;39.30;;;;;;491975;240;1173;-53
2020/12/19 08:03:16;;;;;;;;;;;19.80;39.40;;;;;;491801;240;1152;-52
2020/12/19 08:05:18;;;;;;;;;;;19.80;39.60;;;;;;491599;240;1061;-53
2020/12/19 08:07:19;;;;;;;;;;;19.70;39.60;;;;;;491702;240;1183;-53
2020/12/19 08:09:20;;;;;;;;;;;19.70;39.70;;;;;;491686;240;1136;-53
2020/12/19 08:11:22;;;;;;;;;;;19.60;39.80;;;;;;491658;240;2125;-53
2020/12/19 08:13:23;;;;;;;;;;;19.60;39.90;;;;;;491615;240;1195;-53
2020/12/19 08:15:24;;;;;;;;;;;19.50;39.90;;;;;;491627;240;947;-53
2020/12/19 08:17:25;;;;;;;;;;;19.50;40.00;;;;;;491667;240;1011;-53
2020/12/19 08:19:27;;;;;;;;;;;19.40;40.10;;;;;;491649;240;1012;-53
2020/12/19 08:21:28;;;;;;;;;;;19.40;40.20;;;;;;491650;240;1062;-53
2020/12/19 08:23:30;;;;;;;;;;;19.40;40.30;;;;;;491646;238;1262;-53
2020/12/19 08:25:30;;;;;;;;;;;19.30;40.30;;;;;;491839;240;1584;-53
2020/12/19 08:27:32;;;;;;;;;;;19.30;40.40;;;;;;491586;240;1061;-53
2020/12/19 08:29:33;;;;;;;;;;;19.30;40.40;;;;;;491997;240;1039;-53
2020/12/19 08:31:34;;;;;;;;;;;19.20;40.40;;;;;;491607;240;2141;-53
2020/12/19 08:33:36;;;;;;;;;;;19.20;40.50;;;;;;491690;240;1022;-53
2020/12/19 08:35:38;;;;;;;;;;;19.20;40.60;;;;;;491580;240;1225;-53
2020/12/19 08:37:38;;;;;;;;;;;19.20;40.60;;;;;;491592;242;2288;-53
2020/12/19 08:39:39;;;;;;;;;;;19.10;40.60;;;;;;491709;240;1151;-53
2020/12/19 08:41:41;;;;;;;;;;;19.10;40.70;;;;;;491611;240;1226;-53
2020/12/19 08:43:42;;;;;;;;;;;19.10;40.70;;;;;;491908;240;1181;-52
2020/12/19 08:45:44;;;;;;;;;;;19.00;40.70;;;;;;491739;240;1055;-53
2020/12/19 08:47:45;;;;;;;;;;;19.00;40.80;;;;;;491623;240;1293;-53
2020/12/19 08:49:46;;;;;;;;;;;19.00;40.80;;;;;;491806;240;1330;-53
2020/12/19 08:51:47;;;;;;;;;;;19.00;40.90;;;;;;491527;240;2199;-53
2020/12/19 08:53:49;;;;;;;;;;;19.00;40.90;;;;;;491595;240;1664;-53
2020/12/19 08:55:50;;;;;;;;;;;18.90;40.90;;;;;;491550;240;1251;-53
2020/12/19 08:57:51;;;;;;;;;;;18.90;41.00;;;;;;491599;240;1091;-53
2020/12/19 08:59:53;;;;;;;;;;;18.90;41.00;;;;;;491691;240;1070;-53
2020/12/19 09:01:54;;;;;;;;;;;18.80;39.70;;;;;;491784;240;1089;-53
2020/12/19 09:03:55;;;;;;;;;;;18.80;41.10;;;;;;491601;240;1070;-53
2020/12/19 09:05:57;;;;;;;;;;;18.80;39.70;;;;;;491604;240;1244;-53
2020/12/19 09:07:58;;;;;;;;;;;18.80;41.10;;;;;;491615;240;1070;-53
2020/12/19 09:09:59;;;;;;;;;;;18.80;39.80;;;;;;491655;240;1224;-53
2020/12/19 09:12:00;;;;;;;;;;;18.80;41.20;;;;;;491744;240;2187;-53
2020/12/19 09:14:02;;;;;;;;;;;18.80;41.20;;;;;;491760;240;972;-53
2020/12/19 09:16:03;;;;;;;;;;;18.70;41.20;;;;;;491504;240;1401;-53
2020/12/19 09:18:04;;;;;;;;;;;18.70;41.20;;;;;;491581;240;1055;-53
2020/12/19 09:20:05;;;;;;;;;;;18.70;41.20;;;;;;491746;240;1339;-53
2020/12/19 09:22:07;;;;;;;;;;;18.70;40.00;;;;;;491558;240;1152;-52
2020/12/19 09:24:08;;;;;;;;;;;18.70;41.30;;;;;;491627;240;1786;-53
2020/12/19 09:26:10;;;;;;;;;;;18.70;41.30;;;;;;491660;240;1577;-53
2020/12/19 09:28:11;;;;;;;;;;;18.70;41.30;;;;;;491541;240;964;-53
2020/12/19 09:30:12;;;;;;;;;;;18.60;41.30;;;;;;491554;240;2201;-53
2020/12/19 09:32:13;;;;;;;;;;;18.60;41.30;;;;;;491564;240;992;-53
2020/12/19 09:34:15;;;;;;;;;;;18.60;41.30;;;;;;491669;240;1119;-53
2020/12/19 09:36:16;;;;;;;;;;;18.60;41.30;;;;;;491606;240;1066;-53
2020/12/19 09:38:17;;;;;;;;;;;18.60;41.40;;;;;;491619;240;1070;-53
2020/12/19 09:40:19;;;;;;;;;;;18.60;41.40;;;;;;491632;240;1180;-53
2020/12/19 09:42:20;;;;;;;;;;;18.50;41.30;;;;;;491642;240;994;-53
2020/12/19 09:44:21;;;;;;;;;;;18.50;41.40;;;;;;491801;240;1054;-53
2020/12/19 09:46:22;;;;;;;;;;;18.50;41.40;;;;;;491553;240;1046;-52
2020/12/19 09:48:24;;;;;;;;;;;18.50;41.40;;;;;;491594;240;1045;-53
2020/12/19 09:50:25;;;;;;;;;;;18.50;41.40;;;;;;491774;240;2136;-53
2020/12/19 09:52:26;;;;;;;;;;;18.50;41.40;;;;;;491685;240;1564;-53
2020/12/19 09:54:28;;;;;;;;;;;18.50;41.40;;;;;;491634;240;1280;-53
2020/12/19 09:56:29;;;;;;;;;;;18.50;41.40;;;;;;491629;240;1487;-52
2020/12/19 09:58:30;;;;;;;;;;;18.50;41.40;;;;;;491587;240;1206;-53
2020/12/19 10:00:31;;;;;;;;;;;18.40;41.40;;;;;;491678;240;1628;-53
2020/12/19 10:02:33;;;;;;;;;;;18.40;41.40;;;;;;491694;240;1238;-52
2020/12/19 10:04:34;;;;;;;;;;;18.40;41.40;;;;;;491760;240;1057;-52
2020/12/19 10:06:36;;;;;;;;;;;;;;;;;;491547;240;1200;-53
2020/12/19 10:08:37;;;;;;;;;;;18.40;41.40;;;;;;491572;241;1125;-52
2020/12/19 10:10:43;;;;;;;;;;;18.40;41.50;;;;;;491792;240;2157;-53
2020/12/19 10:12:40;;;;;;;;;;;18.40;41.50;;;;;;491576;242;1461;-52
2020/12/19 10:14:41;;;;;;;;;;;18.40;41.50;;;;;;491822;240;1053;-53
2020/12/19 10:16:42;;;;;;;;;;;18.40;41.50;;;;;;491673;240;1068;-53
2020/12/19 10:18:44;;;;;;;;;;;18.40;41.50;;;;;;491793;240;1077;-53
2020/12/19 10:20:45;;;;;;;;;;;18.40;41.50;;;;;;491979;240;1069;-53
2020/12/19 10:22:46;;;;;;;;;;;18.40;41.60;;;;;;491746;240;963;-53
2020/12/19 10:24:47;;;;;;;;;;;18.40;41.60;;;;;;491595;240;1272;-53
2020/12/19 10:26:49;;;;;;;;;;;18.30;41.50;;;;;;491716;240;1115;-53
2020/12/19 10:28:50;;;;;;;;;;;18.30;41.50;;;;;;491749;240;1125;-53
2020/12/19 10:30:51;;;;;;;;;;;18.30;41.50;;;;;;491648;240;2192;-53
2020/12/19 10:32:53;;;;;;;;;;;18.30;41.50;;;;;;491617;240;1025;-53
2020/12/19 10:34:54;;;;;;;;;;;18.30;41.50;;;;;;491722;240;1019;-53
2020/12/19 10:36:55;;;;;;;;;;;18.30;41.50;;;;;;491614;240;1388;-52
2020/12/19 10:38:57;;;;;;;;;;;18.30;41.50;;;;;;491691;240;1246;-52
2020/12/19 10:40:58;;;;;;;;;;;18.30;41.50;;;;;;491684;240;1784;-53
2020/12/19 10:42:59;;;;;;;;;;;18.30;41.60;;;;;;491560;240;1214;-53
2020/12/19 10:45:00;;;;;;;;;;;18.30;40.30;;;;;;491593;240;996;-53
2020/12/19 10:47:01;;;;;;;;;;;18.30;41.60;;;;;;491596;240;1028;-53
2020/12/19 10:49:03;;;;;;;;;;;18.30;41.60;;;;;;491639;240;1271;-53
2020/12/19 10:51:04;;;;;;;;;;;18.30;41.60;;;;;;491894;240;2136;-53
2020/12/19 10:53:05;;;;;;;;;;;18.30;41.60;;;;;;491609;240;1186;-53
2020/12/19 10:55:07;;;;;;;;;;;18.20;41.50;;;;;;491803;240;1157;-52
2020/12/19 10:57:08;;;;;;;;;;;18.20;41.60;;;;;;491706;240;1245;-53
2020/12/19 10:59:09;;;;;;;;;;;18.20;41.60;;;;;;491633;240;1007;-53
2020/12/19 11:01:11;;;;;;;;;;;18.20;41.50;;;;;;491653;240;1069;-53
2020/12/19 11:03:12;;;;;;;;;;;18.20;41.60;;;;;;491678;240;1045;-53
2020/12/19 11:05:13;;;;;;;;;;;18.20;40.30;;;;;;491719;240;1053;-53
2020/12/19 11:07:14;;;;;;;;;;;18.20;41.50;;;;;;491797;240;1002;-53
2020/12/19 11:09:16;;;;;;;;;;;18.20;41.50;;;;;;491849;240;1053;-53
2020/12/19 11:11:17;;;;;;;;;;;18.30;41.40;;;;;;491700;240;2274;-53
2020/12/19 11:13:18;;;;;;;;;;;18.30;41.30;;;;;;491730;240;1039;-53
2020/12/19 11:15:20;;;;;;;;;;;18.30;41.30;;;;;;491617;240;1117;-53
2020/12/19 11:17:21;;;;;;;;;;;18.30;41.20;;;;;;491576;240;1197;-53
2020/12/19 11:19:22;;;;;;;;;;;18.40;41.30;;;;;;491844;240;1070;-53
2020/12/19 11:21:24;;;;;;;;;;;18.40;41.20;;;;;;491578;240;1082;-53
2020/12/19 11:23:25;;;;;;;;;;;18.40;41.10;;;;;;491602;240;1190;-53
2020/12/19 11:25:26;;;;;;;;;;;18.40;41.10;;;;;;491763;240;1116;-53
2020/12/19 11:27:27;;;;;;;;;;;18.40;41.00;;;;;;491606;240;1353;-53
2020/12/19 11:29:29;;;;;;;;;;;18.40;41.00;;;;;;491651;240;1060;-53
2020/12/19 11:31:30;;;;;;;;;;;18.50;41.00;;;;;;491593;240;2189;-53
2020/12/19 11:33:31;;;;;;;;;;;18.50;40.90;;;;;;491572;240;1120;-53
2020/12/19 11:35:33;;;;;;;;;;;18.50;40.90;;;;;;491693;240;1046;-53
2020/12/19 11:37:34;;;;;;;;;;;18.50;40.90;;;;;;491717;240;1060;-53
2020/12/19 11:39:35;;;;;;;;;;;18.60;40.90;;;;;;491716;240;1312;-53
2020/12/19 11:41:36;;;;;;;;;;;18.60;40.80;;;;;;491657;240;1185;-53
2020/12/19 11:43:38;;;;;;;;;;;18.60;40.80;;;;;;491663;240;1093;-53
2020/12/19 11:45:39;;;;;;;;;;;18.70;40.80;;;;;;491852;240;1050;-53
2020/12/19 11:47:40;;;;;;;;;;;18.60;40.70;;;;;;491819;240;964;-53
2020/12/19 11:49:41;;;;;;;;;;;18.70;40.70;;;;;;491748;240;1030;-53
2020/12/19 11:51:43;;;;;;;;;;;18.70;40.70;;;;;;491650;240;2139;-53
2020/12/19 11:53:44;;;;;;;;;;;18.70;40.60;;;;;;491622;240;1006;-53
2020/12/19 11:55:45;;;;;;;;;;;18.70;40.50;;;;;;491619;240;1168;-53